• Join FlightAware (Why Join?)
  • Login
  • US Flag 
10:51PM EST


 

Airport Tracker/Info


-or-


 

Live Flight TrackerFlight Track Log ✈ ASQ4577 ✈ 12-May-2013 ✈ KORD - KCLE

Flight Track Log - Related Links

Times and Time Zones

All times are in EDT time to prevent confusion due to time zone crossing. See the ASQ4577 flight status page for this flight to view local times or setup timezone preferences in your user account.

Time Position Orientation Groundspeed Altitude Reporting Facility
EDT Latitude Longitude Course Direction KTS MPH feet Rate Location/Type
04:13PM 42.0167 -87.9333 90° East 154 177 2,900  Level Chicago TRACON
04:14PM 42.0667 -87.8833 37° Northeast 236 272 4,600 1,140 Climbing Chicago TRACON
04:15PM 42.1167 -87.8333 37° Northeast 255 293 5,200 1,260 Climbing Chicago TRACON
04:16PM 42.1347 -87.8064 48° Northeast 251 289 6,400 2,280 Climbing Chicago Center
04:17PM 42.0661 -87.2626 78° East  Level FlightAware Approximate
04:17PM 42.1778 -87.7283 53° Northeast 280 322 8,700  Level Chicago Center
04:18PM 42.0861 -87.1334 77° East  Level FlightAware Approximate
04:18PM 42.1656 -87.6192 99° East 296 341 10,500  Level Chicago Center
04:19PM 42.1000 -87.0220 90° East  Level FlightAware Approximate
04:19PM 42.1531 -87.4997 98° East 316 364 12,500  Level Chicago Center
04:20PM 42.1419 -87.3733 97° East 336 387 13,600 1,200 Climbing Chicago Center
04:21PM 42.1269 -87.2078 97° East 367 422 15,000 1,320 Climbing Chicago Center
04:22PM 42.1122 -87.0656 98° East 382 440 16,400 1,320 Climbing Chicago Center
04:23PM 42.1164 -86.9214 88° East 385 443 17,800 1,200 Climbing Chicago Center
04:24PM 42.1217 -86.7769 87° East 387 445 18,900 1,200 Climbing Chicago Center
04:25PM 42.1289 -86.6114 87° East 399 459 20,400 1,380 Climbing Chicago Center
04:26PM 42.1339 -86.4614 87° East 401 461 21,800 1,200 Climbing Chicago Center
04:27PM 42.1383 -86.3100 88° East 404 465 22,900 540 Climbing Chicago Center
04:28PM 42.1431 -86.1500 88° East 421 484 23,000  Climbing Chicago Center
04:29PM 42.1403 -85.9583 91° East 453 521 23,000  Level Chicago Center
04:30PM 42.1350 -85.7858 92° East 464 534 23,000  Level Chicago Center
04:31PM 42.1297 -85.6103 92° East 471 542 23,000  Level Chicago Center
04:32PM 42.1244 -85.4331 92° East 475 547 23,000  Level Chicago Center
04:33PM 42.1183 -85.2564 93° East 475 547 23,000  Level Chicago Center
04:34PM 42.1133 -85.0375 92° East 485 558 23,000  Level Chicago Center
04:36PM 42.1061 -84.8581 93° East 484 557 23,000  Level Chicago Center
04:37PM 42.1000 -84.6783 93° East 484 557 23,000  Level Chicago Center
04:38PM 42.0933 -84.4997 93° East 481 554 23,000  Level Chicago Center
04:39PM 42.0864 -84.3203 93° East 482 555 23,000  Level Chicago Center
04:40PM 42.0783 -84.1403 93° East 483 556 23,000  Level Chicago Center
04:41PM 42.0692 -83.9400 93° East 480 552 23,000  Level Cleveland Center
04:42PM 42.0597 -83.7633 94° East 480 552 23,000  Level Cleveland Center
04:43PM 42.0514 -83.6033 94° East 480 552 23,000  Level Cleveland Center
04:44PM 42.0419 -83.4072 94° East 480 552 23,000 -360 Level Cleveland Center
04:45PM 42.0253 -83.2358 97° East 475 547 22,300 -1,200 Descending Cleveland Center
04:46PM 42.0083 -83.0536 97° East 459 528 20,700 -1,620 Descending Cleveland Center
04:47PM 41.9908 -82.8992 99° East 436 502 19,100 -1,740 Descending Cleveland Center
04:48PM 41.9750 -82.7422 98° East 422 486 17,300 -1,860 Descending Cleveland Center
04:49PM 41.9611 -82.5908 97° East 417 480 15,400 -1,980 Descending Cleveland Center
04:50PM 41.9261 -82.4475 108° East 406 467 13,400 -2,040 Descending Cleveland Center
04:50PM 41.8883 -82.3347 114° Southeast 400 460 11,800 -1,980 Descending Cleveland Center
04:51PM 41.8603 -82.2419 112° Southeast 396 456 10,400 -1,560 Descending Cleveland Center
04:52PM 41.8406 -82.1775 112° Southeast 394 453 10,000 -420 Descending Cleveland Center
04:52PM 41.8036 -82.1375 141° Southeast 362 417 10,000  Level Cleveland Center
04:53PM 41.7625 -82.0947 142° Southeast 356 410 10,000  Level Cleveland Center
04:53PM 41.7314 -82.0633 143° Southeast 331 381 10,000 -720 Level Cleveland Center
04:54PM 41.6967 -82.0181 136° Southeast 332 382 9,300 -1,320 Descending Cleveland Center
04:54PM 41.6642 -81.9478 122° Southeast 308 354 8,300 -1,200 Descending Cleveland Center
04:55PM 41.6581 -81.9311 116° Southeast 313 360 8,100 -1,980 Descending Cleveland Center
04:55PM 41.6317 -81.8639 118° Southeast 270 311 6,500 -2,040 Descending Cleveland Center
04:56PM 41.6217 -81.8414 121° Southeast 286 329 6,100 -1,800 Descending Cleveland Center
04:56PM 41.5953 -81.7742 118° Southeast 266 306 4,700 -1,800 Descending Cleveland Center
04:57PM 41.5872 -81.7547 119° Southeast 267 307 4,300 -900 Descending Cleveland Center
04:57PM 41.5522 -81.7069 134° Southeast 213 245 3,800 -600 Descending Cleveland Center
04:58PM 41.5417 -81.7011 158° South 233 268 3,700 -720 Descending Cleveland Center
04:58PM 41.5000 -81.7086 188° South 187 215 3,100 -900 Descending Cleveland Center